Time;durP1;ratioP1;P1;durP2;ratioP2;P2;SDS_P1;SDS_P2;PMS_P1;PMS_P2;Temp;Humidity;BMP_temperature;BMP_pressure;BME280_temperature;BME280_humidity;BME280_pressure;Samples;Min_cycle;Max_cycle;Signal;HPM_P1;HPM_P2
2022/06/09 00:01:53;;;;;;;;;;;15.20;89.20;;;;;;5036968;28;19923;-84
2022/06/09 00:04:20;;;;;;;;;;;15.20;89.10;;;;;;5022755;28;19972;-85
2022/06/09 00:06:51;;;;;;;;;;;15.20;89.30;;;;;;5021031;28;20342;-85
2022/06/09 00:09:17;;;;;;;;;;;15.10;89.50;;;;;;5020022;28;19943;-85
2022/06/09 00:11:45;;;;;;;;;;;15.10;89.60;;;;;;5021325;28;19917;-85
2022/06/09 00:14:11;;;;;;;;;;;15.10;89.50;;;;;;5018928;28;20241;-85
2022/06/09 00:16:37;;;;;;;;;;;15.10;89.40;;;;;;5020407;28;19960;-84
2022/06/09 00:19:03;;;;;;;;;;;15.00;89.30;;;;;;5035069;28;19909;-84
2022/06/09 00:21:28;;;;;;;;;;;15.10;89.40;;;;;;5032988;28;20147;-85
2022/06/09 00:23:54;;;;;;;;;;;15.00;89.50;;;;;;5014537;28;19951;-85
2022/06/09 00:26:19;;;;;;;;;;;15.00;89.40;;;;;;5020589;28;19913;-85
2022/06/09 00:28:45;;;;;;;;;;;15.00;89.20;;;;;;5015923;28;19959;-85
2022/06/09 00:31:10;;;;;;;;;;;15.00;89.00;;;;;;5016193;28;19913;-84
2022/06/09 00:33:36;;;;;;;;;;;15.00;88.90;;;;;;5017414;28;19913;-85
2022/06/09 00:36:01;;;;;;;;;;;15.00;88.50;;;;;;5015475;28;20249;-85
2022/06/09 00:38:27;;;;;;;;;;;15.00;88.90;;;;;;5017290;28;19931;-84
2022/06/09 00:40:56;;;;;;;;;;;15.00;89.10;;;;;;5032747;28;19913;-85
2022/06/09 00:43:21;;;;;;;;;;;15.00;88.80;;;;;;5030485;28;19913;-85
2022/06/09 00:45:51;;;;;;;;;;;15.10;88.70;;;;;;5017638;28;20322;-84
2022/06/09 00:48:21;;;;;;;;;;;15.00;88.70;;;;;;5037583;28;19917;-85
2022/06/09 00:50:48;;;;;;;;;;;15.00;88.70;;;;;;5020204;28;19948;-86
2022/06/09 00:53:16;;;;;;;;;;;15.00;89.00;;;;;;5036823;28;20355;-85
2022/06/09 00:55:42;;;;;;;;;;;14.90;88.60;;;;;;5016862;28;19913;-85
2022/06/09 00:58:09;;;;;;;;;;;15.00;88.80;;;;;;5032263;28;20008;-85
2022/06/09 01:00:40;;;;;;;;;;;14.90;88.70;;;;;;5016117;28;19935;-85
2022/06/09 01:03:06;;;;;;;;;;;14.90;88.80;;;;;;5034808;28;19917;-85
2022/06/09 01:05:32;;;;;;;;;;;15.00;88.70;;;;;;5017468;28;19927;-85
2022/06/09 01:07:59;;;;;;;;;;;14.90;88.80;;;;;;5016537;28;20044;-85
2022/06/09 01:10:27;;;;;;;;;;;14.90;89.00;;;;;;5017439;28;19971;-85
2022/06/09 01:12:53;;;;;;;;;;;15.00;88.90;;;;;;5019663;28;19909;-85
2022/06/09 01:15:20;;;;;;;;;;;14.90;88.80;;;;;;5019605;28;19931;-85
2022/06/09 01:17:49;;;;;;;;;;;14.90;88.70;;;;;;5043287;28;19960;-85
2022/06/09 01:20:24;;;;;;;;;;;14.90;88.40;;;;;;5018524;28;19960;-85
2022/06/09 01:22:49;;;;;;;;;;;15.00;88.40;;;;;;5020349;28;20003;-85
2022/06/09 01:25:33;;;;;;;;;;;15.00;88.20;;;;;;5035637;28;19975;-85
2022/06/09 01:28:25;;;;;;;;;;;15.00;88.20;;;;;;5019313;28;19924;-84
2022/06/09 01:31:11;;;;;;;;;;;15.00;88.20;;;;;;5032418;28;20404;-85
2022/06/09 01:33:42;;;;;;;;;;;15.00;88.20;;;;;;5037257;28;19909;-85
2022/06/09 01:36:14;;;;;;;;;;;15.00;88.20;;;;;;5028671;28;20007;-84
2022/06/09 01:38:50;;;;;;;;;;;15.00;88.20;;;;;;5046520;28;19902;-87
2022/06/09 01:41:16;;;;;;;;;;;15.00;88.00;;;;;;5042783;28;19919;-85
2022/06/09 01:43:42;;;;;;;;;;;15.00;88.10;;;;;;5019867;28;19913;-84
2022/06/09 01:46:10;;;;;;;;;;;15.10;88.00;;;;;;5019473;28;19913;-85
2022/06/09 01:48:36;;;;;;;;;;;15.10;87.90;;;;;;5019887;28;20039;-84
2022/06/09 01:51:08;;;;;;;;;;;15.00;87.80;;;;;;5037623;28;20454;-85
2022/06/09 01:53:34;;;;;;;;;;;15.00;88.10;;;;;;5019466;28;19920;-85
2022/06/09 01:56:19;;;;;;;;;;;15.00;87.70;;;;;;5019755;28;20103;-85
2022/06/09 01:58:57;;;;;;;;;;;15.00;87.60;;;;;;5027864;28;20445;-84
2022/06/09 02:01:25;;;;;;;;;;;15.10;87.90;;;;;;5013425;28;20405;-84
2022/06/09 02:03:53;;;;;;;;;;;15.10;87.80;;;;;;5035174;28;19917;-84
2022/06/09 02:06:19;;;;;;;;;;;15.10;87.30;;;;;;5035087;28;19919;-84
2022/06/09 02:08:45;;;;;;;;;;;15.10;87.20;;;;;;5035614;28;19913;-84
2022/06/09 02:11:11;;;;;;;;;;;15.10;87.30;;;;;;5018402;28;19947;-85
2022/06/09 02:13:39;;;;;;;;;;;15.10;87.10;;;;;;5036799;28;20288;-84
2022/06/09 02:16:06;;;;;;;;;;;15.10;86.90;;;;;;5019284;28;20324;-85
2022/06/09 02:18:34;;;;;;;;;;;15.10;86.70;;;;;;5018228;28;19920;-85
2022/06/09 02:21:06;;;;;;;;;;;15.10;86.70;;;;;;5036259;28;19928;-85
2022/06/09 02:23:32;;;;;;;;;;;15.10;86.60;;;;;;5018046;28;19991;-84
2022/06/09 02:25:57;;;;;;;;;;;15.10;86.50;;;;;;5016985;28;19921;-85
2022/06/09 02:28:23;;;;;;;;;;;15.10;86.50;;;;;;5034543;28;20047;-85
2022/06/09 02:30:49;;;;;;;;;;;15.10;86.50;;;;;;5018013;28;19943;-85
2022/06/09 02:33:14;;;;;;;;;;;15.10;86.50;;;;;;5016534;28;20008;-84
2022/06/09 02:35:41;;;;;;;;;;;15.10;86.30;;;;;;5034976;28;19948;-84
2022/06/09 02:38:07;;;;;;;;;;;15.10;86.00;;;;;;5036027;28;20534;-85
2022/06/09 02:40:33;;;;;;;;;;;15.00;86.30;;;;;;5016924;28;19913;-84
2022/06/09 02:43:00;;;;;;;;;;;15.00;86.30;;;;;;5017985;28;19959;-84
2022/06/09 02:45:26;;;;;;;;;;;15.00;86.00;;;;;;5035424;28;19959;-84
2022/06/09 02:47:52;;;;;;;;;;;15.00;85.70;;;;;;5018844;28;19931;-84
2022/06/09 02:50:17;;;;;;;;;;;15.00;86.00;;;;;;5017467;28;19988;-84
2022/06/09 02:52:43;;;;;;;;;;;15.00;86.10;;;;;;5018486;28;20013;-84
2022/06/09 02:55:09;;;;;;;;;;;15.00;86.10;;;;;;5028809;28;19913;-84
2022/06/09 02:57:35;;;;;;;;;;;15.00;86.00;;;;;;5015864;28;20314;-84
2022/06/09 03:00:01;;;;;;;;;;;15.00;86.20;;;;;;5034869;28;19940;-84
2022/06/09 03:02:26;;;;;;;;;;;15.00;86.90;;;;;;5016027;28;19921;-84
2022/06/09 03:04:51;;;;;;;;;;;15.00;85.90;;;;;;5035212;28;19920;-85
2022/06/09 03:07:17;;;;;;;;;;;15.00;86.00;;;;;;5017616;28;19956;-84
2022/06/09 03:09:42;;;;;;;;;;;15.00;86.40;;;;;;5016469;28;19924;-84
2022/06/09 03:12:09;;;;;;;;;;;14.90;86.30;;;;;;5034825;28;19924;-84
2022/06/09 03:14:35;;;;;;;;;;;15.00;86.10;;;;;;5035882;28;19962;-84
2022/06/09 03:17:01;;;;;;;;;;;14.90;86.10;;;;;;5016517;28;19917;-83
2022/06/09 03:19:26;;;;;;;;;;;14.90;85.90;;;;;;5012525;28;20017;-84
2022/06/09 03:21:52;;;;;;;;;;;15.00;86.40;;;;;;5016326;28;19952;-84
2022/06/09 03:24:17;;;;;;;;;;;15.00;85.80;;;;;;5016083;28;19913;-84
2022/06/09 03:26:43;;;;;;;;;;;15.00;86.00;;;;;;5033347;28;19944;-84
2022/06/09 03:29:08;;;;;;;;;;;15.00;86.20;;;;;;5017422;28;19924;-84
2022/06/09 03:31:34;;;;;;;;;;;15.00;86.30;;;;;;5035443;28;19963;-83
2022/06/09 03:33:59;;;;;;;;;;;15.00;85.80;;;;;;5020211;28;19921;-84
2022/06/09 03:36:25;;;;;;;;;;;15.00;85.60;;;;;;5033174;28;19913;-83
2022/06/09 03:38:51;;;;;;;;;;;15.00;85.70;;;;;;5013215;28;20063;-83
2022/06/09 03:41:16;;;;;;;;;;;15.00;85.80;;;;;;5011397;28;19917;-84
2022/06/09 03:43:42;;;;;;;;;;;15.00;85.80;;;;;;5011501;28;19913;-84
2022/06/09 03:46:07;;;;;;;;;;;15.00;85.70;;;;;;5029472;28;19909;-84
2022/06/09 03:48:33;;;;;;;;;;;14.90;85.70;;;;;;5015441;28;19917;-85
2022/06/09 03:50:59;;;;;;;;;;;14.90;85.70;;;;;;5017613;28;19932;-84
2022/06/09 03:53:24;;;;;;;;;;;14.90;85.70;;;;;;5033442;28;20300;-85
2022/06/09 03:55:50;;;;;;;;;;;14.90;85.70;;;;;;5015241;28;19909;-83
2022/06/09 03:58:15;;;;;;;;;;;14.90;85.90;;;;;;5034708;28;19962;-85
2022/06/09 04:00:41;;;;;;;;;;;14.90;85.60;;;;;;5012622;28;19959;-86
2022/06/09 04:03:06;;;;;;;;;;;14.90;85.90;;;;;;5014215;28;19913;-86
2022/06/09 04:05:32;;;;;;;;;;;14.90;85.80;;;;;;5016733;28;20375;-82
2022/06/09 04:08:01;;;;;;;;;;;14.90;85.70;;;;;;5011370;28;19917;-83
2022/06/09 04:10:27;;;;;;;;;;;14.90;85.90;;;;;;5016973;28;19917;-84
2022/06/09 04:12:53;;;;;;;;;;;15.00;85.30;;;;;;5029370;28;19921;-85
2022/06/09 04:15:19;;;;;;;;;;;15.00;85.40;;;;;;5023205;28;19917;-85
2022/06/09 04:17:45;;;;;;;;;;;15.00;85.40;;;;;;5025340;28;19939;-85
2022/06/09 04:20:12;;;;;;;;;;;15.00;85.50;;;;;;5036179;28;19973;-82
2022/06/09 04:22:37;;;;;;;;;;;15.00;86.00;;;;;;5032018;28;20020;-83
2022/06/09 04:25:03;;;;;;;;;;;15.10;85.70;;;;;;5036108;28;19949;-83
2022/06/09 04:27:28;;;;;;;;;;;15.00;85.50;;;;;;5022253;28;19913;-85
2022/06/09 04:29:54;;;;;;;;;;;15.10;85.20;;;;;;5035028;28;19948;-86
2022/06/09 04:32:19;;;;;;;;;;;15.10;85.30;;;;;;5040079;28;20386;-85
2022/06/09 04:34:45;;;;;;;;;;;15.00;85.50;;;;;;5054491;28;19920;-85
2022/06/09 04:37:10;;;;;;;;;;;14.90;85.90;;;;;;5031121;28;19920;-86
2022/06/09 04:39:35;;;;;;;;;;;14.90;86.20;;;;;;5012765;28;19909;-85
2022/06/09 04:42:01;;;;;;;;;;;14.90;86.10;;;;;;5030539;28;19917;-85
2022/06/09 04:44:26;;;;;;;;;;;14.90;86.20;;;;;;5017298;28;19920;-84
2022/06/09 04:46:52;;;;;;;;;;;14.90;86.20;;;;;;5017162;28;19917;-85
2022/06/09 04:49:17;;;;;;;;;;;14.90;86.20;;;;;;5017721;28;19924;-85
2022/06/09 04:51:43;;;;;;;;;;;14.80;86.30;;;;;;5023763;28;19920;-87
2022/06/09 04:54:08;;;;;;;;;;;14.80;86.60;;;;;;5033537;28;20025;-84
2022/06/09 04:56:34;;;;;;;;;;;14.90;86.50;;;;;;5034218;28;20577;-84
2022/06/09 04:59:00;;;;;;;;;;;14.90;86.50;;;;;;5032323;28;19922;-84
2022/06/09 05:01:27;;;;;;;;;;;15.00;86.40;;;;;;5016257;28;19917;-85
2022/06/09 05:03:53;;;;;;;;;;;14.90;86.30;;;;;;5021087;28;19976;-83
2022/06/09 05:06:19;;;;;;;;;;;15.00;86.00;;;;;;5034297;28;19960;-83
2022/06/09 05:08:45;;;;;;;;;;;15.00;86.20;;;;;;5012356;28;19944;-83
2022/06/09 05:11:10;;;;;;;;;;;15.00;86.30;;;;;;5015669;28;19925;-83
2022/06/09 05:13:36;;;;;;;;;;;15.00;86.20;;;;;;5037035;28;19963;-83
2022/06/09 05:16:02;;;;;;;;;;;15.00;86.00;;;;;;5021546;28;20323;-86
2022/06/09 05:18:28;;;;;;;;;;;15.00;85.90;;;;;;5021215;28;20043;-85
2022/06/09 05:20:55;;;;;;;;;;;15.10;85.90;;;;;;5019987;28;19924;-84
2022/06/09 05:23:20;;;;;;;;;;;15.10;85.50;;;;;;5021722;28;19913;-84
2022/06/09 05:25:46;;;;;;;;;;;15.10;85.90;;;;;;5019034;28;19913;-85
2022/06/09 05:28:12;;;;;;;;;;;15.20;85.70;;;;;;5018180;28;20245;-82
2022/06/09 05:30:38;;;;;;;;;;;15.20;85.30;;;;;;5016133;28;20644;-82
2022/06/09 05:33:03;;;;;;;;;;;15.30;85.20;;;;;;5018763;28;19928;-83
2022/06/09 05:35:29;;;;;;;;;;;15.20;85.30;;;;;;5036069;28;19924;-83
2022/06/09 05:46:08;;;;;;;;;;;15.40;84.60;;;;;;5046409;28;19919;-84
2022/06/09 05:48:34;;;;;;;;;;;15.50;84.90;;;;;;5025194;28;19917;-84
2022/06/09 05:51:00;;;;;;;;;;;15.60;84.80;;;;;;5025113;28;19920;-83
2022/06/09 05:53:26;;;;;;;;;;;15.60;84.30;;;;;;5040520;28;20003;-84
2022/06/09 05:55:51;;;;;;;;;;;15.60;84.50;;;;;;5026031;28;19920;-84
2022/06/09 05:58:17;;;;;;;;;;;15.60;84.30;;;;;;5039058;28;19913;-84
2022/06/09 06:00:42;;;;;;;;;;;15.60;84.20;;;;;;5042506;28;19920;-84
2022/06/09 06:03:08;;;;;;;;;;;15.70;84.10;;;;;;5050577;28;19913;-83
2022/06/09 06:08:18;;;;;;;;;;;15.80;83.80;;;;;;5042339;28;20016;-84
2022/06/09 06:10:44;;;;;;;;;;;15.70;83.70;;;;;;5034464;28;19913;-83
2022/06/09 06:13:09;;;;;;;;;;;15.70;83.60;;;;;;5030911;28;19928;-84
2022/06/09 06:15:35;;;;;;;;;;;15.80;83.40;;;;;;5036813;28;19941;-83
2022/06/09 06:18:03;;;;;;;;;;;15.80;83.40;;;;;;5028984;28;19917;-83
2022/06/09 06:20:30;;;;;;;;;;;15.80;83.70;;;;;;5019514;28;19917;-83
2022/06/09 06:22:55;;;;;;;;;;;15.90;83.10;;;;;;5013547;28;19963;-84
2022/06/09 06:25:21;;;;;;;;;;;15.80;83.40;;;;;;5037139;28;19909;-83
2022/06/09 06:27:46;;;;;;;;;;;15.90;83.30;;;;;;5037672;28;19909;-83
2022/06/09 06:30:12;;;;;;;;;;;15.90;83.20;;;;;;5019069;28;19916;-83
2022/06/09 06:32:37;;;;;;;;;;;15.80;83.80;;;;;;5025703;28;19917;-82
2022/06/09 06:35:06;;;;;;;;;;;15.80;83.30;;;;;;5052939;28;19924;-83
2022/06/09 06:37:32;;;;;;;;;;;15.80;83.80;;;;;;5017362;28;20423;-82
2022/06/09 06:39:57;;;;;;;;;;;15.80;83.70;;;;;;5018747;28;19980;-82
2022/06/09 06:42:23;;;;;;;;;;;16.00;83.80;;;;;;5033196;28;19928;-82
2022/06/09 06:44:49;;;;;;;;;;;16.00;83.50;;;;;;5018221;28;19921;-82
2022/06/09 06:47:15;;;;;;;;;;;16.00;83.10;;;;;;5017106;28;19913;-83
2022/06/09 06:49:40;;;;;;;;;;;16.10;82.80;;;;;;5016648;28;19936;-83
2022/06/09 06:52:06;;;;;;;;;;;16.00;82.70;;;;;;5017249;28;20451;-83
2022/06/09 06:54:31;;;;;;;;;;;16.00;82.60;;;;;;5036225;28;19910;-83
2022/06/09 06:56:56;;;;;;;;;;;16.10;82.70;;;;;;5016841;28;19925;-83
2022/06/09 06:59:22;;;;;;;;;;;16.20;82.40;;;;;;5033924;28;19992;-82
2022/06/09 07:01:47;;;;;;;;;;;16.40;82.10;;;;;;5016178;28;19917;-82
2022/06/09 07:04:13;;;;;;;;;;;16.50;81.90;;;;;;5033725;28;19913;-84
2022/06/09 07:06:38;;;;;;;;;;;16.60;81.30;;;;;;5036254;28;19913;-83
2022/06/09 07:09:04;;;;;;;;;;;16.70;81.30;;;;;;5033901;28;19944;-85
2022/06/09 07:11:31;;;;;;;;;;;16.80;80.90;;;;;;5033619;28;20124;-83
2022/06/09 07:13:56;;;;;;;;;;;16.90;80.30;;;;;;5040888;28;20012;-86
2022/06/09 07:16:22;;;;;;;;;;;17.00;79.60;;;;;;5023448;28;19936;-85
2022/06/09 07:18:48;;;;;;;;;;;17.10;79.20;;;;;;5029311;28;19996;-86
2022/06/09 07:21:14;;;;;;;;;;;17.10;79.50;;;;;;5048237;28;19909;-87
2022/06/09 07:23:39;;;;;;;;;;;17.20;78.50;;;;;;5041183;28;19973;-83
2022/06/09 07:26:05;;;;;;;;;;;17.10;78.20;;;;;;5039198;28;19913;-84
2022/06/09 07:28:31;;;;;;;;;;;17.00;78.90;;;;;;5024460;28;19921;-86
2022/06/09 07:30:58;;;;;;;;;;;16.90;79.70;;;;;;5041096;28;19917;-84
2022/06/09 07:33:25;;;;;;;;;;;16.80;79.60;;;;;;5040941;28;19944;-82
2022/06/09 07:35:53;;;;;;;;;;;16.60;79.70;;;;;;5022355;28;19924;-84
2022/06/09 07:38:19;;;;;;;;;;;16.50;80.50;;;;;;5044069;28;19931;-84
2022/06/09 07:40:44;;;;;;;;;;;16.40;81.30;;;;;;5017958;28;19921;-84
2022/06/09 07:43:10;;;;;;;;;;;16.40;81.20;;;;;;5026556;28;19909;-84
2022/06/09 07:45:37;;;;;;;;;;;16.50;82.30;;;;;;5025325;28;19948;-83
2022/06/09 07:48:03;;;;;;;;;;;16.40;83.40;;;;;;5024355;28;19920;-83
2022/06/09 07:50:29;;;;;;;;;;;16.30;83.80;;;;;;5025847;28;19985;-85
2022/06/09 07:52:55;;;;;;;;;;;16.40;83.80;;;;;;5023972;28;19913;-83
2022/06/09 07:55:22;;;;;;;;;;;16.40;84.50;;;;;;5034416;28;20011;-84
2022/06/09 07:57:48;;;;;;;;;;;16.50;84.30;;;;;;5020610;28;19913;-82
2022/06/09 08:00:14;;;;;;;;;;;16.50;84.10;;;;;;5005618;28;19920;-83
2022/06/09 08:02:40;;;;;;;;;;;16.50;84.00;;;;;;5032330;28;19928;-84
2022/06/09 08:05:06;;;;;;;;;;;16.50;83.80;;;;;;5013263;28;19913;-81
2022/06/09 08:07:31;;;;;;;;;;;16.40;84.40;;;;;;5030021;28;19920;-83
2022/06/09 08:09:57;;;;;;;;;;;16.40;85.00;;;;;;5009405;28;20015;-83
2022/06/09 08:12:22;;;;;;;;;;;16.30;84.70;;;;;;5029896;28;19917;-83
2022/06/09 08:14:48;;;;;;;;;;;16.40;84.50;;;;;;5029157;28;19917;-83
2022/06/09 08:17:13;;;;;;;;;;;16.30;84.90;;;;;;5009204;28;19967;-84
2022/06/09 08:19:39;;;;;;;;;;;16.50;84.60;;;;;;5011770;28;19937;-84
2022/06/09 08:22:04;;;;;;;;;;;16.60;84.50;;;;;;4995330;28;20012;-84
2022/06/09 08:24:33;;;;;;;;;;;16.70;83.80;;;;;;4994000;28;20307;-86
2022/06/09 08:26:59;;;;;;;;;;;16.80;83.70;;;;;;5011730;28;20429;-84
2022/06/09 08:29:25;;;;;;;;;;;17.10;82.90;;;;;;5030329;28;19917;-84
2022/06/09 08:31:50;;;;;;;;;;;17.10;82.20;;;;;;5020720;28;19917;-84
2022/06/09 08:34:16;;;;;;;;;;;17.30;82.20;;;;;;5031737;28;20029;-84
2022/06/09 08:36:41;;;;;;;;;;;17.30;81.70;;;;;;5014088;28;19916;-83
2022/06/09 08:39:08;;;;;;;;;;;17.60;80.20;;;;;;5031449;28;19910;-85
2022/06/09 08:41:36;;;;;;;;;;;17.70;80.60;;;;;;5020366;28;19921;-84
2022/06/09 08:44:10;;;;;;;;;;;17.80;80.30;;;;;;5031202;28;19955;-84
2022/06/09 08:46:38;;;;;;;;;;;17.90;80.00;;;;;;5033537;28;19913;-84
2022/06/09 08:49:06;;;;;;;;;;;18.00;79.60;;;;;;5022925;28;19988;-86
2022/06/09 08:51:36;;;;;;;;;;;18.00;78.10;;;;;;5033171;28;19921;-85
2022/06/09 08:54:10;;;;;;;;;;;18.00;79.40;;;;;;5012215;28;19913;-85
2022/06/09 08:56:36;;;;;;;;;;;18.20;78.90;;;;;;5031092;28;19913;-85
2022/06/09 08:59:03;;;;;;;;;;;18.30;78.70;;;;;;5008595;28;20304;-84
2022/06/09 09:01:35;;;;;;;;;;;18.40;77.90;;;;;;5013875;28;20379;-85
2022/06/09 09:04:05;;;;;;;;;;;18.40;76.50;;;;;;5014346;28;19920;-85
2022/06/09 09:06:35;;;;;;;;;;;18.50;77.20;;;;;;5030331;28;19943;-83
2022/06/09 09:09:05;;;;;;;;;;;18.50;76.80;;;;;;5017245;28;19921;-83
2022/06/09 09:11:31;;;;;;;;;;;18.20;77.20;;;;;;5017050;28;20252;-84
2022/06/09 09:14:06;;;;;;;;;;;18.00;77.20;;;;;;5022702;28;19909;-84
2022/06/09 09:16:39;;;;;;;;;;;18.00;77.70;;;;;;5030159;28;20348;-83
2022/06/09 09:19:16;;;;;;;;;;;18.00;78.10;;;;;;5030021;28;19909;-84
2022/06/09 09:21:55;;;;;;;;;;;18.10;77.80;;;;;;5029174;28;19913;-84
2022/06/09 09:24:46;;;;;;;;;;;18.20;77.60;;;;;;5015544;28;19948;-84
2022/06/09 09:27:11;;;;;;;;;;;18.30;77.20;;;;;;5012740;28;19917;-84
2022/06/09 09:29:37;;;;;;;;;;;18.60;76.20;;;;;;5025124;28;19931;-83
2022/06/09 09:32:04;;;;;;;;;;;18.80;76.00;;;;;;5030005;28;19915;-85
2022/06/09 09:34:32;;;;;;;;;;;18.80;75.10;;;;;;5027770;28;20015;-84
2022/06/09 09:37:17;;;;;;;;;;;18.70;74.60;;;;;;5018589;28;19935;-83
2022/06/09 09:39:45;;;;;;;;;;;18.60;75.40;;;;;;5003032;28;19921;-84
2022/06/09 09:42:13;;;;;;;;;;;18.80;75.40;;;;;;5033631;28;19917;-85
2022/06/09 09:44:39;;;;;;;;;;;19.00;74.00;;;;;;5018039;28;19913;-84
2022/06/09 09:47:07;;;;;;;;;;;19.10;74.60;;;;;;5018917;28;19919;-83
2022/06/09 09:49:34;;;;;;;;;;;19.20;72.70;;;;;;5016243;28;20273;-84
2022/06/09 09:52:00;;;;;;;;;;;19.40;72.50;;;;;;5018743;28;20025;-84
2022/06/09 09:54:44;;;;;;;;;;;19.40;71.20;;;;;;5019057;28;19987;-84
2022/06/09 09:57:17;;;;;;;;;;;19.20;71.30;;;;;;5018043;28;19997;-83
2022/06/09 09:59:54;;;;;;;;;;;19.30;70.40;;;;;;5017749;28;20004;-85
2022/06/09 10:11:00;;;;;;;;;;;19.70;69.50;;;;;;5042027;28;19920;-85
2022/06/09 10:13:30;;;;;;;;;;;19.80;69.60;;;;;;5028320;28;19913;-85
2022/06/09 10:15:56;;;;;;;;;;;19.60;68.40;;;;;;5029575;28;20007;-87
2022/06/09 10:18:22;;;;;;;;;;;19.60;68.30;;;;;;5029171;28;19909;-85
2022/06/09 10:21:01;;;;;;;;;;;19.60;70.00;;;;;;5042087;28;19973;-84
2022/06/09 10:23:41;;;;;;;;;;;19.60;70.00;;;;;;5022226;28;19917;-85
2022/06/09 10:26:15;;;;;;;;;;;19.90;69.30;;;;;;5014445;28;20059;-85
2022/06/09 10:28:44;;;;;;;;;;;20.10;68.60;;;;;;5025922;28;19927;-84
2022/06/09 10:31:13;;;;;;;;;;;20.30;67.30;;;;;;5038116;28;19909;-85
2022/06/09 10:33:46;;;;;;;;;;;20.20;65.30;;;;;;5036250;28;19955;-84
2022/06/09 10:36:24;;;;;;;;;;;20.30;64.90;;;;;;5018011;28;19923;-84
2022/06/09 10:39:05;;;;;;;;;;;20.10;65.10;;;;;;5026369;28;19913;-85
2022/06/09 10:41:51;;;;;;;;;;;20.00;66.20;;;;;;5022162;28;20676;-85
2022/06/09 10:44:16;;;;;;;;;;;19.90;67.70;;;;;;5022398;28;19909;-85
2022/06/09 10:55:14;;;;;;;;;;;19.50;69.60;;;;;;5016867;28;19979;-86
2022/06/09 10:55:14;;;;;;;;;;;17.00;82.20;;;;;;5043165;28;19920;-84
2022/06/09 10:57:45;;;;;;;;;;;16.50;86.10;;;;;;5040677;28;20367;-84
2022/06/09 11:00:15;;;;;;;;;;;16.40;87.50;;;;;;5028365;28;19921;-84
2022/06/09 11:02:46;;;;;;;;;;;16.60;88.30;;;;;;5032471;28;19925;-85
2022/06/09 11:05:15;;;;;;;;;;;16.60;88.80;;;;;;5050696;28;19984;-85
2022/06/09 11:07:43;;;;;;;;;;;16.80;89.20;;;;;;5040406;28;19913;-85
2022/06/09 11:10:20;;;;;;;;;;;16.90;88.70;;;;;;5028802;28;19935;-85
2022/06/09 11:13:01;;;;;;;;;;;17.00;89.00;;;;;;5022314;28;19917;-84
2022/06/09 11:15:41;;;;;;;;;;;17.20;89.40;;;;;;5045549;28;19921;-83
2022/06/09 11:18:06;;;;;;;;;;;17.50;87.70;;;;;;5038026;28;19917;-83
2022/06/09 11:20:42;;;;;;;;;;;17.90;86.70;;;;;;5015067;28;19913;-82
2022/06/09 11:23:14;;;;;;;;;;;18.00;84.00;;;;;;5016543;28;19928;-82
2022/06/09 11:25:47;;;;;;;;;;;18.20;85.30;;;;;;5015957;28;20690;-83
2022/06/09 11:28:22;;;;;;;;;;;18.60;86.60;;;;;;5015487;28;20002;-82
2022/06/09 11:30:53;;;;;;;;;;;18.60;84.50;;;;;;5010840;28;20358;-85
2022/06/09 11:33:25;;;;;;;;;;;18.80;82.80;;;;;;5030446;28;20000;-82
2022/06/09 11:36:09;;;;;;;;;;;18.60;81.20;;;;;;5015108;28;20020;-83
2022/06/09 11:38:37;;;;;;;;;;;18.70;81.70;;;;;;5030965;28;19924;-81
2022/06/09 11:41:22;;;;;;;;;;;19.00;80.10;;;;;;5010625;28;19940;-86
2022/06/09 11:43:59;;;;;;;;;;;19.10;77.60;;;;;;4983038;28;19909;-87
2022/06/09 11:46:28;;;;;;;;;;;18.80;74.10;;;;;;4984248;28;19909;-86
2022/06/09 11:49:05;;;;;;;;;;;18.50;73.50;;;;;;4983648;28;19999;-84
2022/06/09 11:51:31;;;;;;;;;;;18.40;71.90;;;;;;4988896;28;19913;-87
2022/06/09 11:54:01;;;;;;;;;;;18.30;74.70;;;;;;5008577;28;19913;-87
2022/06/09 11:57:03;;;;;;;;;;;18.40;77.00;;;;;;5009842;28;19967;-87
2022/06/09 11:59:51;;;;;;;;;;;18.50;74.30;;;;;;4974231;28;19909;-87
2022/06/09 12:02:30;;;;;;;;;;;18.40;77.20;;;;;;4994156;28;19909;-87
2022/06/09 12:05:19;;;;;;;;;;;18.30;76.90;;;;;;4978965;28;19913;-88
2022/06/09 12:07:50;;;;;;;;;;;18.10;76.70;;;;;;4951015;28;19913;-88
2022/06/09 12:10:35;;;;;;;;;;;18.00;78.60;;;;;;5020520;28;19920;-90
2022/06/09 12:13:12;;;;;;;;;;;18.10;79.20;;;;;;5017222;28;19963;-87
2022/06/09 12:15:57;;;;;;;;;;;18.20;79.10;;;;;;4989037;28;19920;-87
2022/06/09 12:18:36;;;;;;;;;;;18.10;78.40;;;;;;4985868;28;20187;-81
2022/06/09 12:21:09;;;;;;;;;;;18.20;80.20;;;;;;4984461;28;20193;-82
2022/06/09 12:23:39;;;;;;;;;;;18.10;81.60;;;;;;4987053;28;19909;-82
2022/06/09 12:26:10;;;;;;;;;;;18.00;81.30;;;;;;5033881;28;19995;-83
2022/06/09 12:28:55;;;;;;;;;;;17.90;79.80;;;;;;5015418;28;19928;-79
2022/06/09 12:31:24;;;;;;;;;;;17.80;80.50;;;;;;5010203;28;19917;-82
2022/06/09 12:33:55;;;;;;;;;;;17.70;82.70;;;;;;5017552;28;20447;-82
2022/06/09 12:36:35;;;;;;;;;;;17.50;79.90;;;;;;5033975;28;20069;-82
2022/06/09 12:39:03;;;;;;;;;;;17.10;77.50;;;;;;5014324;28;19913;-82
2022/06/09 12:41:30;;;;;;;;;;;16.70;79.40;;;;;;5014630;28;19917;-81
2022/06/09 12:44:04;;;;;;;;;;;16.50;80.30;;;;;;5022566;28;20000;-82
2022/06/09 12:46:32;;;;;;;;;;;16.40;82.00;;;;;;5032688;28;20012;-82
2022/06/09 12:48:58;;;;;;;;;;;16.30;81.30;;;;;;5034013;28;20056;-82
2022/06/09 12:51:28;;;;;;;;;;;16.40;81.60;;;;;;5016207;28;20029;-82
2022/06/09 12:53:58;;;;;;;;;;;16.50;82.00;;;;;;5015539;28;19913;-82
2022/06/09 12:56:24;;;;;;;;;;;16.60;81.20;;;;;;5017839;28;19913;-83
2022/06/09 12:58:50;;;;;;;;;;;16.60;81.90;;;;;;5016446;28;19962;-82
2022/06/09 13:01:18;;;;;;;;;;;16.70;83.70;;;;;;5034121;28;19913;-82
2022/06/09 13:03:49;;;;;;;;;;;16.80;82.60;;;;;;5017705;28;19913;-82
2022/06/09 13:06:15;;;;;;;;;;;16.90;83.00;;;;;;5022635;28;19909;-83
2022/06/09 13:08:45;;;;;;;;;;;17.10;83.30;;;;;;5023377;28;19925;-83
2022/06/09 13:11:17;;;;;;;;;;;17.10;81.50;;;;;;5039206;28;19910;-83
2022/06/09 13:13:43;;;;;;;;;;;17.20;80.40;;;;;;5039612;28;19913;-83
2022/06/09 13:16:19;;;;;;;;;;;17.20;80.10;;;;;;5023370;28;19916;-82
2022/06/09 13:18:47;;;;;;;;;;;17.30;81.10;;;;;;5021142;28;19921;-83
2022/06/09 13:21:15;;;;;;;;;;;17.50;78.90;;;;;;5003406;28;19910;-83
2022/06/09 13:23:41;;;;;;;;;;;17.50;79.40;;;;;;5025694;28;20388;-83
2022/06/09 13:26:07;;;;;;;;;;;17.60;80.10;;;;;;5034421;28;19967;-83
2022/06/09 13:28:40;;;;;;;;;;;17.60;78.90;;;;;;5039111;28;19913;-83
2022/06/09 13:31:21;;;;;;;;;;;17.50;78.10;;;;;;5023878;28;19913;-83
2022/06/09 13:33:51;;;;;;;;;;;17.60;78.90;;;;;;5026571;28;19920;-83
2022/06/09 13:36:25;;;;;;;;;;;17.60;77.70;;;;;;5032239;28;19971;-84
2022/06/09 13:38:50;;;;;;;;;;;17.60;78.00;;;;;;5022515;28;19917;-84
2022/06/09 13:41:23;;;;;;;;;;;17.60;77.10;;;;;;5023194;28;19956;-84
2022/06/09 13:43:51;;;;;;;;;;;17.60;77.90;;;;;;5022753;28;19916;-84
2022/06/09 13:46:21;;;;;;;;;;;17.50;78.30;;;;;;5021474;28;20382;-84
2022/06/09 13:48:50;;;;;;;;;;;17.70;77.70;;;;;;5022444;28;19917;-84
2022/06/09 13:51:29;;;;;;;;;;;17.60;79.40;;;;;;5038857;28;19913;-84
2022/06/09 13:54:01;;;;;;;;;;;17.50;78.90;;;;;;5033311;28;19913;-85
2022/06/09 13:56:26;;;;;;;;;;;17.50;79.80;;;;;;5039360;28;19913;-85
2022/06/09 13:58:52;;;;;;;;;;;17.50;79.60;;;;;;5020878;28;19924;-85
2022/06/09 14:01:17;;;;;;;;;;;17.30;80.60;;;;;;5015579;28;19909;-84
2022/06/09 14:03:46;;;;;;;;;;;17.40;80.60;;;;;;5019489;28;19920;-84
2022/06/09 14:06:14;;;;;;;;;;;17.50;81.10;;;;;;5020227;28;20553;-85
2022/06/09 14:08:41;;;;;;;;;;;17.50;81.00;;;;;;5035842;28;19963;-87
2022/06/09 14:11:07;;;;;;;;;;;17.60;79.80;;;;;;5013737;28;19920;-84
2022/06/09 14:13:39;;;;;;;;;;;17.70;79.00;;;;;;4990971;28;19921;-88
2022/06/09 14:16:05;;;;;;;;;;;17.80;78.50;;;;;;4969724;28;19916;-85
2022/06/09 14:18:33;;;;;;;;;;;17.80;78.60;;;;;;4985949;28;20012;-86
2022/06/09 14:21:00;;;;;;;;;;;17.90;77.80;;;;;;4964917;28;19985;-87
2022/06/09 14:23:27;;;;;;;;;;;18.10;77.90;;;;;;4965018;28;19909;-85
2022/06/09 14:25:57;;;;;;;;;;;18.20;77.20;;;;;;4964106;28;19909;-86
2022/06/09 14:28:23;;;;;;;;;;;18.30;76.20;;;;;;4965136;28;19909;-86
2022/06/09 14:30:48;;;;;;;;;;;18.30;74.10;;;;;;5002696;28;20211;-86
2022/06/09 14:33:14;;;;;;;;;;;18.50;75.60;;;;;;4989966;28;19987;-85
2022/06/09 14:35:41;;;;;;;;;;;18.50;74.10;;;;;;4987965;28;20471;-87
2022/06/09 14:38:07;;;;;;;;;;;18.60;75.50;;;;;;4987752;28;19913;-86
2022/06/09 14:40:33;;;;;;;;;;;19.00;74.40;;;;;;5005303;28;19909;-84
2022/06/09 14:42:59;;;;;;;;;;;19.20;73.40;;;;;;5006024;28;19910;-86
2022/06/09 14:45:24;;;;;;;;;;;19.50;73.50;;;;;;5006431;28;20363;-86
2022/06/09 14:47:50;;;;;;;;;;;19.60;74.10;;;;;;5003170;28;20028;-85
2022/06/09 14:50:18;;;;;;;;;;;19.60;71.70;;;;;;5003293;28;19952;-85